createdAt,value
2017-11-08T00:00:06.015Z,91.20
2017-11-08T00:03:08.110Z,91.30
2017-11-08T00:06:09.429Z,91.30
2017-11-08T00:09:11.535Z,91.40
2017-11-08T00:12:12.878Z,91.40
2017-11-08T00:15:14.202Z,91.30
2017-11-08T00:18:15.534Z,91.50
2017-11-08T00:21:17.650Z,91.90
2017-11-08T00:24:22.945Z,91.60
2017-11-08T00:27:25.049Z,91.70
2017-11-08T00:30:26.405Z,91.60
2017-11-08T00:33:27.742Z,91.80
2017-11-08T00:36:29.067Z,91.60
2017-11-08T00:39:31.146Z,91.80
2017-11-08T00:42:33.199Z,91.90
2017-11-08T00:45:35.317Z,92.00
2017-11-08T00:48:36.676Z,92.00
2017-11-08T00:51:37.981Z,92.10
2017-11-08T00:54:39.334Z,92.20
2017-11-08T00:57:46.696Z,92.20
2017-11-08T01:00:51.906Z,92.20
2017-11-08T01:03:53.265Z,92.10
2017-11-08T01:06:54.611Z,92.30
2017-11-08T01:09:55.943Z,92.20
2017-11-08T01:12:59.000Z,92.30
2017-11-08T01:16:01.102Z,92.40
2017-11-08T01:19:02.435Z,92.40
2017-11-08T01:22:03.729Z,92.30
2017-11-08T01:25:05.064Z,92.20
2017-11-08T01:28:06.386Z,92.20
2017-11-08T01:31:07.750Z,92.10
2017-11-08T01:34:09.093Z,92.40
2017-11-08T01:37:15.263Z,92.50
2017-11-08T01:40:18.437Z,92.70
2017-11-08T01:43:19.801Z,92.70
2017-11-08T01:46:21.167Z,92.80
2017-11-08T01:49:22.510Z,92.80
2017-11-08T01:52:23.866Z,92.70
2017-11-08T01:55:26.022Z,93.00
2017-11-08T01:58:27.382Z,92.90
2017-11-08T02:01:28.726Z,93.00
2017-11-08T02:04:30.057Z,93.00
2017-11-08T02:07:31.421Z,92.90
2017-11-08T02:10:32.846Z,93.00
2017-11-08T02:13:34.954Z,93.20
2017-11-08T02:16:36.342Z,93.20
2017-11-08T02:19:37.674Z,93.10
2017-11-08T02:22:39.104Z,93.30
2017-11-08T02:25:40.460Z,93.30
2017-11-08T02:28:41.793Z,93.40
2017-11-08T02:31:43.161Z,93.40
2017-11-08T02:34:44.562Z,93.40
2017-11-08T02:37:46.690Z,93.20
2017-11-08T02:40:48.101Z,93.20
2017-11-08T02:43:49.511Z,93.40
2017-11-08T02:46:56.900Z,93.20
2017-11-08T02:49:58.254Z,93.30
2017-11-08T02:52:59.613Z,93.30
2017-11-08T02:56:01.707Z,93.30
2017-11-08T02:59:03.066Z,93.30
2017-11-08T03:02:04.437Z,93.30
2017-11-08T03:05:11.900Z,93.40
2017-11-08T03:08:13.208Z,93.30
2017-11-08T03:11:14.617Z,93.10
2017-11-08T03:14:15.977Z,93.30
2017-11-08T03:17:17.331Z,93.20
2017-11-08T03:20:18.662Z,93.30
2017-11-08T03:23:19.970Z,93.30
2017-11-08T03:26:21.320Z,93.20
2017-11-08T03:29:22.661Z,93.30
2017-11-08T03:32:23.958Z,93.30
2017-11-08T03:35:25.301Z,93.10
2017-11-08T03:38:26.691Z,93.40
2017-11-08T03:41:28.030Z,93.40
2017-11-08T03:44:29.379Z,93.40
2017-11-08T03:47:30.827Z,93.40
2017-11-08T03:50:32.133Z,93.40
2017-11-08T03:53:34.218Z,93.60
2017-11-08T03:56:35.568Z,93.60
2017-11-08T03:59:37.107Z,93.60
2017-11-08T04:02:39.144Z,93.70
2017-11-08T04:05:40.480Z,93.30
2017-11-08T04:08:41.825Z,93.40
2017-11-08T04:11:43.147Z,93.50
2017-11-08T04:14:44.506Z,93.70
2017-11-08T04:17:45.875Z,93.60
2017-11-08T04:20:47.244Z,93.70
2017-11-08T04:23:48.583Z,93.70
2017-11-08T04:26:49.946Z,93.50
2017-11-08T04:29:51.311Z,93.50
2017-11-08T04:32:52.629Z,93.70
2017-11-08T04:35:53.944Z,93.50
2017-11-08T04:38:55.288Z,93.50
2017-11-08T04:41:56.582Z,93.70
2017-11-08T04:44:57.931Z,93.60
2017-11-08T04:47:59.310Z,93.60
2017-11-08T04:51:00.642Z,93.70
2017-11-08T04:54:01.998Z,93.90
2017-11-08T04:57:03.377Z,93.60
2017-11-08T05:00:05.452Z,93.60
2017-11-08T05:03:06.898Z,93.60
2017-11-08T05:06:08.938Z,93.60
2017-11-08T05:09:10.254Z,93.60
2017-11-08T05:12:11.619Z,93.60
2017-11-08T05:15:12.934Z,93.70
2017-11-08T05:18:14.274Z,93.60
2017-11-08T05:21:15.606Z,93.50
2017-11-08T05:24:17.651Z,93.70
2017-11-08T05:27:19.018Z,93.70
2017-11-08T05:30:21.435Z,93.70
2017-11-08T05:33:22.784Z,93.70
2017-11-08T05:36:24.090Z,93.80
2017-11-08T05:39:25.423Z,93.70
2017-11-08T05:42:26.729Z,94.10
2017-11-08T05:45:28.107Z,93.60
2017-11-08T05:48:29.464Z,93.60
2017-11-08T05:51:30.868Z,93.70
2017-11-08T05:54:32.203Z,93.60
2017-11-08T05:57:34.280Z,93.70
2017-11-08T06:00:35.642Z,93.60
2017-11-08T06:03:36.968Z,93.60
2017-11-08T06:06:39.043Z,93.60
2017-11-08T06:09:41.129Z,93.60
2017-11-08T06:12:42.502Z,93.50
2017-11-08T06:15:43.830Z,93.90
2017-11-08T06:18:45.184Z,93.60
2017-11-08T06:21:46.585Z,93.70
2017-11-08T06:24:47.913Z,93.70
2017-11-08T06:27:49.250Z,93.80
2017-11-08T06:30:50.610Z,93.80
2017-11-08T06:33:52.690Z,93.80
2017-11-08T06:36:54.063Z,93.80
2017-11-08T06:39:56.181Z,93.80
2017-11-08T06:42:57.510Z,93.80
2017-11-08T06:45:58.870Z,93.90
2017-11-08T06:49:00.361Z,93.90
2017-11-08T06:52:01.681Z,93.80
2017-11-08T06:58:11.033Z,93.90
2017-11-08T07:01:12.401Z,93.80
2017-11-08T07:04:13.785Z,93.90
2017-11-08T07:07:15.125Z,93.90
2017-11-08T07:10:16.675Z,93.80
2017-11-08T07:13:18.007Z,93.80
2017-11-08T07:16:19.399Z,94.00
2017-11-08T07:19:21.458Z,93.90
2017-11-08T07:22:23.274Z,93.90
2017-11-08T07:25:24.599Z,94.40
2017-11-08T07:28:25.895Z,94.00
2017-11-08T07:31:27.218Z,94.00
2017-11-08T07:34:28.522Z,94.00
2017-11-08T07:37:29.837Z,93.90
2017-11-08T07:40:31.185Z,94.10
2017-11-08T07:43:32.534Z,94.00
2017-11-08T07:46:33.833Z,94.00
2017-11-08T07:49:35.868Z,94.20
2017-11-08T07:52:37.185Z,94.20
2017-11-08T07:55:44.634Z,94.10
2017-11-08T07:58:46.863Z,94.00
2017-11-08T08:01:48.189Z,94.00
2017-11-08T08:04:49.491Z,94.10
2017-11-08T08:07:50.785Z,94.10
2017-11-08T08:10:52.119Z,94.10
2017-11-08T08:13:58.560Z,94.10
2017-11-08T08:16:59.867Z,94.10
2017-11-08T08:20:01.179Z,94.00
2017-11-08T08:23:03.211Z,94.10
2017-11-08T08:26:05.527Z,94.10
2017-11-08T08:29:06.886Z,94.20
2017-11-08T08:32:08.224Z,94.20
2017-11-08T08:35:10.299Z,94.20
2017-11-08T08:38:11.620Z,94.10
2017-11-08T08:41:12.993Z,93.80
2017-11-08T08:44:15.007Z,94.30
2017-11-08T08:47:16.318Z,94.30
2017-11-08T08:50:17.619Z,94.20
2017-11-08T08:53:18.981Z,94.20
2017-11-08T08:56:20.307Z,94.30
2017-11-08T08:59:21.654Z,94.50
2017-11-08T09:02:23.950Z,94.30
2017-11-08T09:05:25.297Z,94.30
2017-11-08T09:08:26.653Z,94.40
2017-11-08T09:11:27.970Z,94.40
2017-11-08T09:14:29.325Z,94.40
2017-11-08T09:17:30.656Z,94.40
2017-11-08T09:20:32.032Z,94.30
2017-11-08T09:23:33.425Z,94.00
2017-11-08T09:26:35.514Z,84.20
2017-11-08T09:29:38.984Z,84.00
2017-11-08T09:32:41.106Z,74.30
2017-11-08T09:35:42.524Z,74.20
2017-11-08T09:38:43.849Z,72.70
2017-11-08T09:41:46.043Z,72.50
2017-11-08T09:44:47.409Z,72.30
2017-11-08T09:47:48.779Z,72.80
2017-11-08T09:50:50.181Z,72.40
2017-11-08T09:53:52.184Z,80.50
2017-11-08T09:56:53.535Z,80.40
2017-11-08T09:59:54.835Z,85.30
2017-11-08T10:02:56.883Z,90.40
2017-11-08T10:05:58.204Z,90.30
2017-11-08T10:09:02.403Z,90.70
2017-11-08T10:12:08.727Z,91.60
2017-11-08T10:15:10.073Z,92.20
2017-11-08T10:18:13.494Z,92.70
2017-11-08T10:21:15.522Z,93.30
2017-11-08T10:24:16.864Z,93.20
2017-11-08T10:27:18.176Z,93.30
2017-11-08T10:30:19.514Z,93.10
2017-11-08T10:33:21.556Z,93.20
2017-11-08T10:36:22.870Z,93.20
2017-11-08T10:39:24.203Z,93.60
2017-11-08T10:45:27.574Z,93.50
2017-11-08T10:48:32.776Z,93.50
2017-11-08T10:51:34.169Z,93.90
2017-11-08T10:54:35.541Z,93.80
2017-11-08T10:57:36.868Z,93.90
2017-11-08T11:00:42.233Z,94.00
2017-11-08T11:03:43.602Z,94.30
2017-11-08T11:06:44.991Z,94.30
2017-11-08T11:09:48.038Z,92.00
2017-11-08T11:12:49.388Z,91.90
2017-11-08T11:15:52.519Z,83.00
2017-11-08T11:18:54.593Z,88.30
2017-11-08T11:22:01.498Z,90.80
2017-11-08T11:25:02.805Z,90.80
2017-11-08T11:28:04.131Z,92.10
2017-11-08T11:31:05.480Z,92.80
2017-11-08T11:34:06.841Z,93.00
2017-11-08T11:37:08.245Z,93.30
2017-11-08T11:40:09.639Z,93.50
2017-11-08T11:43:11.019Z,93.60
2017-11-08T11:46:12.347Z,93.80
2017-11-08T11:49:13.704Z,94.00
2017-11-08T11:52:15.104Z,93.70
2017-11-08T11:55:16.460Z,93.50
2017-11-08T11:58:17.850Z,93.80
2017-11-08T12:01:19.188Z,93.80
2017-11-08T12:04:21.064Z,93.60
2017-11-08T12:07:22.443Z,93.80
2017-11-08T12:10:26.591Z,93.90
2017-11-08T12:13:28.009Z,94.30
2017-11-08T12:16:29.426Z,94.00
2017-11-08T12:19:30.831Z,93.90
2017-11-08T12:22:32.920Z,94.50
2017-11-08T12:25:34.473Z,94.10
2017-11-08T12:28:35.817Z,94.10
2017-11-08T12:31:37.195Z,94.00
2017-11-08T12:34:40.032Z,94.10
2017-11-08T12:37:42.747Z,93.80
2017-11-08T12:40:44.430Z,93.70
2017-11-08T12:43:47.763Z,93.90
2017-11-08T12:46:49.145Z,93.70
2017-11-08T12:49:51.752Z,93.70
2017-11-08T12:52:54.220Z,93.70
2017-11-08T12:55:56.192Z,93.90
2017-11-08T12:58:57.718Z,93.70
2017-11-08T13:02:01.803Z,94.10
2017-11-08T13:05:04.108Z,94.10
2017-11-08T13:08:08.175Z,93.70
2017-11-08T13:11:15.958Z,93.70
2017-11-08T13:14:17.363Z,94.00
2017-11-08T13:17:18.723Z,94.20
2017-11-08T13:20:21.064Z,93.80
2017-11-08T13:23:22.456Z,93.70
2017-11-08T13:26:24.348Z,93.80
2017-11-08T13:29:26.760Z,94.10
2017-11-08T13:32:28.581Z,94.20
2017-11-08T13:35:29.992Z,94.10
2017-11-08T13:38:32.077Z,94.20
2017-11-08T13:41:35.400Z,94.50
2017-11-08T13:44:36.924Z,94.40
2017-11-08T13:47:38.405Z,94.30
2017-11-08T13:50:39.841Z,94.40
2017-11-08T13:53:42.609Z,94.40
2017-11-08T13:56:45.792Z,94.40
2017-11-08T13:59:47.723Z,94.40
2017-11-08T14:02:50.010Z,94.40
2017-11-08T14:05:52.986Z,94.60
2017-11-08T14:08:56.153Z,94.30
2017-11-08T14:11:57.566Z,94.30
2017-11-08T14:15:00.066Z,93.90
2017-11-08T14:18:03.687Z,94.30
2017-11-08T14:21:05.163Z,94.30
2017-11-08T14:24:06.533Z,94.70
2017-11-08T14:27:07.871Z,94.50
2017-11-08T14:30:15.861Z,94.90
2017-11-08T14:33:18.481Z,94.70
2017-11-08T14:36:21.298Z,94.80
2017-11-08T14:39:25.334Z,94.80
2017-11-08T14:42:28.704Z,94.80
2017-11-08T14:45:31.366Z,94.80
2017-11-08T14:48:32.777Z,94.80
2017-11-08T14:51:36.165Z,94.90
2017-11-08T14:54:39.349Z,94.90
2017-11-08T14:57:40.710Z,94.90
2017-11-08T15:00:42.054Z,94.80
2017-11-08T15:03:43.401Z,95.30
2017-11-08T15:06:44.711Z,95.10
2017-11-08T15:09:46.025Z,95.00
2017-11-08T15:12:47.326Z,95.00
2017-11-08T15:15:49.455Z,95.00
2017-11-08T15:18:50.789Z,94.90
2017-11-08T15:21:52.072Z,94.80
2017-11-08T15:24:53.468Z,94.70
2017-11-08T15:27:55.074Z,95.00
2017-11-08T15:30:56.425Z,94.80
2017-11-08T15:33:57.931Z,94.80
2017-11-08T15:36:59.324Z,94.80
2017-11-08T15:40:00.716Z,94.90
2017-11-08T15:43:02.854Z,95.00
2017-11-08T15:46:06.279Z,94.90
2017-11-08T15:49:14.448Z,95.20
2017-11-08T15:52:15.797Z,95.20
2017-11-08T15:55:17.174Z,95.20
2017-11-08T15:58:18.541Z,96.20
2017-11-08T16:01:23.725Z,94.30
2017-11-08T16:04:25.932Z,94.20
2017-11-08T16:07:27.359Z,94.40
2017-11-08T16:10:28.735Z,94.60
2017-11-08T16:13:30.265Z,94.90
2017-11-08T16:16:32.456Z,95.00
2017-11-08T16:19:33.797Z,94.90
2017-11-08T16:22:35.191Z,94.90
2017-11-08T16:25:37.285Z,95.00
2017-11-08T16:28:38.631Z,95.00
2017-11-08T16:31:39.992Z,95.10
2017-11-08T16:34:41.355Z,94.90
2017-11-08T16:37:42.718Z,95.00
2017-11-08T16:40:44.071Z,95.10
2017-11-08T16:43:45.423Z,95.20
2017-11-08T16:46:46.766Z,95.10
2017-11-08T16:49:48.178Z,95.30
2017-11-08T16:52:49.730Z,95.30
2017-11-08T16:55:51.039Z,95.40
2017-11-08T16:58:52.453Z,95.30
2017-11-08T17:01:53.832Z,95.40
2017-11-08T17:04:55.213Z,95.40
2017-11-08T17:07:57.319Z,95.20
2017-11-08T17:10:58.654Z,95.20
2017-11-08T17:13:59.972Z,95.00
2017-11-08T17:17:01.290Z,95.10
2017-11-08T17:20:02.743Z,95.10
2017-11-08T17:23:04.070Z,95.20
2017-11-08T17:26:05.392Z,95.20
2017-11-08T17:29:07.491Z,95.10
2017-11-08T17:32:08.796Z,95.10
2017-11-08T17:35:10.915Z,95.30
2017-11-08T17:38:13.111Z,95.30
2017-11-08T17:41:14.514Z,94.90
2017-11-08T17:44:16.433Z,95.00
2017-11-08T17:47:18.447Z,95.00
2017-11-08T17:50:20.224Z,95.00
2017-11-08T17:53:21.627Z,95.10
2017-11-08T17:56:23.738Z,95.30
2017-11-08T17:59:25.140Z,95.30
2017-11-08T18:02:27.268Z,95.10
2017-11-08T18:05:28.727Z,95.10
2017-11-08T18:08:30.526Z,95.30
2017-11-08T18:11:32.674Z,95.40
2017-11-08T18:14:34.139Z,95.40
2017-11-08T18:17:36.307Z,95.40
2017-11-08T18:20:37.660Z,95.40
2017-11-08T18:23:39.218Z,95.30
2017-11-08T18:26:41.398Z,95.40
2017-11-08T18:29:43.535Z,95.40
2017-11-08T18:32:44.974Z,95.40
2017-11-08T18:35:46.416Z,95.40
2017-11-08T18:38:47.757Z,95.50
2017-11-08T18:41:49.204Z,95.30
2017-11-08T18:44:50.616Z,95.30
2017-11-08T18:47:52.799Z,95.40
2017-11-08T18:50:54.942Z,95.30
2017-11-08T18:53:56.315Z,95.30
2017-11-08T18:56:58.410Z,95.40
2017-11-08T18:59:59.881Z,95.40
2017-11-08T19:03:01.316Z,95.40
2017-11-08T19:06:02.683Z,95.40
2017-11-08T19:09:04.122Z,95.40
2017-11-08T19:12:05.540Z,95.50
2017-11-08T19:15:07.708Z,95.50
2017-11-08T19:18:09.851Z,95.50
2017-11-08T19:21:11.287Z,95.50
2017-11-08T19:24:12.728Z,95.40
2017-11-08T19:27:14.137Z,95.40
2017-11-08T19:30:16.295Z,95.20
2017-11-08T19:33:17.690Z,95.20
2017-11-08T19:36:19.166Z,95.30
2017-11-08T19:39:20.555Z,95.20
2017-11-08T19:42:21.948Z,94.70
2017-11-08T19:45:23.410Z,95.00
2017-11-08T19:48:24.919Z,95.10
2017-11-08T19:51:27.852Z,95.20
2017-11-08T19:54:29.310Z,95.20
2017-11-08T19:57:30.794Z,95.20
2017-11-08T20:00:32.228Z,95.10
2017-11-08T20:03:33.761Z,95.10
2017-11-08T20:06:35.215Z,95.20
2017-11-08T20:09:36.744Z,95.10
2017-11-08T20:12:38.179Z,95.20
2017-11-08T20:15:40.405Z,95.30
2017-11-08T20:18:41.865Z,95.30
2017-11-08T20:21:43.308Z,95.30
2017-11-08T20:24:44.809Z,95.40
2017-11-08T20:27:46.612Z,95.30
2017-11-08T20:30:48.359Z,95.20
2017-11-08T20:33:49.771Z,95.10
2017-11-08T20:36:51.177Z,95.40
2017-11-08T20:39:52.533Z,95.20
2017-11-08T20:42:53.949Z,94.90
2017-11-08T20:45:56.150Z,95.10
2017-11-08T20:48:57.515Z,95.10
2017-11-08T20:51:58.840Z,95.20
2017-11-08T20:55:00.182Z,95.20
2017-11-08T20:58:01.603Z,95.10
2017-11-08T21:01:03.757Z,95.20
2017-11-08T21:04:05.248Z,95.20
2017-11-08T21:07:07.956Z,95.20
2017-11-08T21:10:10.866Z,95.30
2017-11-08T21:13:13.722Z,95.40
2017-11-08T21:16:16.650Z,95.20
2017-11-08T21:19:19.455Z,95.20
2017-11-08T21:22:21.563Z,95.20
2017-11-08T21:25:23.184Z,95.20
2017-11-08T21:28:24.592Z,95.20
2017-11-08T21:31:25.952Z,95.10
2017-11-08T21:34:27.433Z,95.10
2017-11-08T21:37:29.383Z,95.00
2017-11-08T21:40:31.389Z,94.80
2017-11-08T21:43:32.839Z,94.90
2017-11-08T21:46:34.916Z,95.00
2017-11-08T21:49:36.809Z,95.50
2017-11-08T21:52:39.909Z,94.80
2017-11-08T21:55:41.406Z,94.80
2017-11-08T21:58:43.736Z,94.80
2017-11-08T22:01:46.035Z,94.90
2017-11-08T22:04:47.575Z,95.00
2017-11-08T22:07:50.214Z,95.00
2017-11-08T22:10:52.602Z,94.90
2017-11-08T22:13:54.790Z,95.10
2017-11-08T22:16:56.155Z,95.00
2017-11-08T22:19:57.522Z,95.10
2017-11-08T22:23:00.179Z,95.00
2017-11-08T22:26:02.352Z,95.00
2017-11-08T22:29:04.477Z,95.10
2017-11-08T22:32:05.893Z,95.00
2017-11-08T22:35:08.371Z,95.10
2017-11-08T22:38:09.805Z,95.10
2017-11-08T22:41:11.286Z,95.00
2017-11-08T22:44:13.446Z,95.00
2017-11-08T22:47:14.837Z,95.00
2017-11-08T22:50:16.216Z,95.10
2017-11-08T22:53:17.749Z,95.10
2017-11-08T22:56:19.062Z,95.30
2017-11-08T22:59:21.244Z,95.00
2017-11-08T23:02:22.926Z,95.00
2017-11-08T23:05:24.289Z,95.00
2017-11-08T23:08:26.425Z,95.10
2017-11-08T23:11:27.753Z,95.10
2017-11-08T23:14:29.916Z,94.90
2017-11-08T23:17:32.057Z,94.80
2017-11-08T23:20:33.486Z,94.80
2017-11-08T23:23:34.903Z,94.90
2017-11-08T23:26:37.081Z,94.90
2017-11-08T23:29:38.841Z,94.90
2017-11-08T23:32:40.209Z,94.90
2017-11-08T23:35:41.585Z,94.90
2017-11-08T23:38:43.696Z,95.00
2017-11-08T23:41:45.816Z,94.90
2017-11-08T23:44:47.176Z,94.90
2017-11-08T23:47:48.537Z,94.90
2017-11-08T23:50:49.952Z,94.90
2017-11-08T23:53:51.361Z,95.00
2017-11-08T23:56:53.550Z,94.60
